Flight Track Log - Related Links

Times and Time Zones

All times are in EDT time to prevent confusion due to time zone crossing. See the GJS6221 flight status page for this flight to view local times or setup timezone preferences in your user account.

Time Position Orientation Groundspeed Altitude Reporting Facility
EDT Latitude Longitude Course Direction KTS MPH feet Rate Location/Type
Mon 02:16:24 PM 40.7333 -73.8333 226° Southwest 191 220 2,400  Level New York TRACON
Mon 02:17:24 PM 40.7500 -73.7833 66° East 234 269 4,700 2,450 Climbing New York TRACON
Mon 02:18:24 PM 40.7833 -73.8667 298° West 268 308 7,300 2,550 Climbing New York TRACON
Mon 02:19:24 PM 40.7500 -73.9500 242° Southwest 287 330 9,800 1,800 Climbing New York TRACON
Mon 02:21:00 PM 40.3396 -74.2971 226° Southwest  Level Estimated
Mon 02:21:24 PM 40.6203 -74.1203 225° Southwest 322 371 12,700  Level New York Center
Mon 02:22:24 PM 40.5217 -74.1483 192° South 343 395 14,600 1,950 Climbing New York Center
Mon 02:23:24 PM 40.4189 -74.1678 188° South 371 427 16,600 1,800 Climbing New York Center
Mon 02:24:24 PM 40.3142 -74.1897 189° South 389 448 18,200 1,655 Climbing New York Center
Mon 02:26:47 PM 40.0683 -74.2414 189° South 405 466 22,200 1,706 Climbing Washington Center
Mon 02:27:48 PM 39.9628 -74.2894 199° South 405 466 24,000 1,563 Climbing Washington Center
Mon 02:28:46 PM 39.8719 -74.3778 217° Southwest 399 459 25,300 1,210 Climbing Washington Center
Mon 02:29:47 PM 39.7811 -74.4792 221° Southwest 415 478 26,400 992 Climbing Washington Center
Mon 02:30:47 PM 39.6989 -74.5883 226° Southwest 426 490 27,300 893 Climbing Washington Center
Mon 02:31:48 PM 39.6103 -74.7053 225° Southwest 437 503 28,200 908 Climbing Washington Center
Mon 02:32:46 PM 39.5236 -74.8222 226° Southwest 447 514 29,100 908 Climbing Washington Center
Mon 02:33:47 PM 39.4344 -74.9358 225° Southwest 452 520 30,000 934 Climbing Washington Center
Mon 02:34:48 PM 39.3478 -75.0522 226° Southwest 457 526 31,000 958 Climbing Washington Center
Mon 02:35:46 PM 39.2417 -75.1386 212° Southwest 457 526 31,900 908 Climbing Washington Center
Mon 02:36:47 PM 39.1253 -75.1850 197° South 441 507 32,800 992 Climbing Washington Center
Mon 02:37:47 PM 39.0086 -75.2389 200° South 441 507 33,900 1,050 Climbing Washington Center
Mon 02:38:47 PM 38.8919 -75.2850 197° South 441 507 34,900 942 Climbing Washington Center
Mon 02:39:48 PM 38.7794 -75.3333 199° South 441 507 35,800 756 Climbing Washington Center
Mon 02:40:46 PM 38.6628 -75.3789 197° South 441 507 36,400 555 Climbing Washington Center
Mon 02:41:47 PM 38.5483 -75.4244 197° South 441 507 36,900 492 Climbing Washington Center
Mon 02:42:48 PM 38.4317 -75.4750 199° South 441 507 37,400 496 Climbing Washington Center
Mon 02:43:48 PM 38.3192 -75.5361 203° Southwest 441 507 37,900 305 Climbing Washington Center
Mon 02:44:46 PM 38.2211 -75.6261 216° Southwest 441 507 38,000 50 Climbing Washington Center
Mon 02:45:47 PM 38.1208 -75.7183 216° Southwest 446 513 38,000  Level Washington Center
Mon 02:46:48 PM 38.0144 -75.8264 219° Southwest 451 519 38,000  Level Washington Center
Mon 02:47:46 PM 37.9225 -75.9050 214° Southwest 456 525 38,000  Level Washington Center
Mon 02:48:46 PM 37.8200 -76.0019 217° Southwest 456 525 38,000  Level Washington Center
Mon 02:49:47 PM 37.7092 -76.1117 218° Southwest 462 532 38,000  Level Washington Center
Mon 02:50:48 PM 37.6044 -76.2000 214° Southwest 462 532 38,000  Level Washington Center
Mon 02:51:45 PM 37.5036 -76.2933 216° Southwest 462 532 38,000  Level Washington Center
Mon 02:52:46 PM 37.4053 -76.3842 216° Southwest 457 526 38,000  Level Washington Center
Mon 02:53:46 PM 37.3022 -76.4769 216° Southwest 457 526 38,000  Level Washington Center
Mon 02:54:47 PM 37.2142 -76.5542 215° Southwest 457 526 38,000  Level Washington Center
Mon 02:55:47 PM 37.1153 -76.6467 217° Southwest 457 526 38,000  Level Washington Center
Mon 02:56:48 PM 37.0164 -76.7364 216° Southwest 457 526 38,000  Level Washington Center
Mon 02:57:46 PM 36.9175 -76.8258 216° Southwest 457 526 38,000  Level Washington Center
Mon 02:58:47 PM 36.8183 -76.9150 216° Southwest 451 519 38,000  Level Washington Center
Mon 02:59:48 PM 36.7214 -77.0042 216° Southwest 451 519 38,000  Level Washington Center
Mon 03:00:46 PM 36.6244 -77.0956 217° Southwest 451 519 38,000  Level Washington Center
Mon 03:01:46 PM 36.5272 -77.1867 217° Southwest 440 506 38,000  Level Washington Center
Mon 03:02:47 PM 36.4342 -77.2803 219° Southwest 440 506 38,000  Level Washington Center
Mon 03:03:48 PM 36.3347 -77.3686 216° Southwest 440 506 38,000  Level Washington Center
Mon 03:04:46 PM 36.2397 -77.4564 217° Southwest 440 506 38,000  Level Washington Center
Mon 03:05:47 PM 36.1464 -77.5469 218° Southwest 435 501 38,000  Level Washington Center
Mon 03:06:48 PM 36.0508 -77.6394 218° Southwest 440 506 38,000  Level Washington Center
Mon 03:07:46 PM 35.9514 -77.7242 215° Southwest 440 506 38,000  Level Washington Center
Mon 03:08:46 PM 35.8497 -77.8061 213° Southwest 440 506 38,000  Level Washington Center
Mon 03:09:47 PM 35.7461 -77.8850 212° Southwest 440 506 38,000  Level Washington Center
Mon 03:10:48 PM 35.6358 -77.9714 212° Southwest 440 506 38,000  Level Washington Center
Mon 03:11:46 PM 35.5319 -78.0500 212° Southwest 440 506 38,000  Level Washington Center
Mon 03:12:47 PM 35.4281 -78.1308 212° Southwest 445 512 38,000  Level Washington Center
Mon 03:13:48 PM 35.3242 -78.2117 212° Southwest 445 512 38,000  Level Washington Center
Mon 03:14:46 PM 35.2222 -78.2922 213° Southwest 445 512 38,000  Level Washington Center
Mon 03:15:46 PM 35.1203 -78.3725 213° Southwest 445 512 38,000  Level Washington Center
Mon 03:16:47 PM 35.0181 -78.4528 213° Southwest 445 512 38,000  Level Washington Center
Mon 03:17:47 PM 34.9139 -78.5300 211° Southwest 445 512 38,000  Level Washington Center
Mon 03:19:29 PM 34.7478 -78.6556 212° Southwest 440 506 38,000  Level Jacksonville Center
Mon 03:20:29 PM 34.6461 -78.7336 212° Southwest 440 506 38,000  Level Jacksonville Center
Mon 03:21:29 PM 34.5442 -78.8092 211° Southwest 440 506 38,000  Level Jacksonville Center
Mon 03:22:29 PM 34.4367 -78.8997 215° Southwest 440 506 38,000  Level Jacksonville Center
Mon 03:23:29 PM 34.3308 -78.9803 212° Southwest 447 514 38,000  Level Jacksonville Center
Mon 03:24:29 PM 34.2286 -79.0550 211° Southwest 447 514 38,000  Level Jacksonville Center
Mon 03:25:29 PM 34.1247 -79.1325 212° Southwest 442 509 38,000 -250 Level Jacksonville Center
Mon 03:26:29 PM 34.0225 -79.2069 211° Southwest 442 509 37,500 -1,050 Descending Jacksonville Center
Mon 03:27:29 PM 33.9225 -79.2836 212° Southwest 442 509 35,900 -1,600 Descending Jacksonville Center
Mon 03:28:29 PM 33.8203 -79.3603 212° Southwest 437 503 34,300 -1,650 Descending Jacksonville Center
Mon 03:29:29 PM 33.7433 -79.4408 221° Southwest 416 479 32,600 -1,150 Descending Jacksonville Center
Mon 03:30:29 PM 33.6642 -79.5289 223° Southwest 390 449 32,000 -700 Descending Jacksonville Center
Mon 03:31:29 PM 33.5831 -79.6167 222° Southwest 390 449 31,200 -1,250 Descending Jacksonville Center
Mon 03:32:29 PM 33.5019 -79.7069 223° Southwest 390 449 29,500 -1,700 Descending Jacksonville Center
Mon 03:33:29 PM 33.4208 -79.7969 223° Southwest 395 455 27,800 -1,950 Descending Jacksonville Center
Mon 03:34:29 PM 33.3414 -79.8867 223° Southwest 395 455 25,600 -2,600 Descending Jacksonville Center
Mon 03:35:29 PM 33.2642 -79.9736 223° Southwest 395 455 22,600 -2,800 Descending Jacksonville Center
Mon 03:36:29 PM 33.1869 -80.0581 222° Southwest 390 449 20,000 -1,300 Descending Jacksonville Center
Mon 03:37:29 PM 33.1114 -80.1422 223° Southwest 380 437 20,000  Level Jacksonville Center
Mon 03:38:29 PM 33.0381 -80.2239 223° Southwest 380 437 20,000  Level Jacksonville Center
Mon 03:39:29 PM 32.9586 -80.3103 222° Southwest 389 448 20,000 -100 Level Jacksonville Center
Mon 03:40:29 PM 32.8869 -80.3867 222° Southwest 389 448 19,800 -1,450 Descending Jacksonville Center
Mon 03:41:29 PM 32.8092 -80.4681 221° Southwest 384 442 17,100 -2,700 Descending Jacksonville Center
Mon 03:42:29 PM 32.7356 -80.5489 223° Southwest 384 442 14,400 -2,200 Descending Jacksonville Center
Mon 03:43:29 PM 32.6661 -80.6247 223° Southwest 366 421 12,700 -1,600 Descending Jacksonville Center
Mon 03:44:29 PM 32.6006 -80.6956 222° Southwest 345 397 11,200 -1,550 Descending Jacksonville Center
Mon 03:45:29 PM 32.5453 -80.7608 225° Southwest 297 342 9,600 -1,600 Descending Jacksonville Center
Mon 03:46:29 PM 32.4836 -80.8264 222° Southwest 273 314 8,000 -800 Descending Jacksonville Center
Mon 03:47:29 PM 32.4303 -80.8867 224° Southwest 267 307 8,000 -800 Level Jacksonville Center
Mon 03:48:29 PM 32.3919 -80.9589 238° Southwest 272 313 6,400 -1,600 Descending Jacksonville Center
Mon 03:49:29 PM 32.3594 -81.0333 243° Southwest 267 307 4,800 -1,550 Descending Jacksonville Center
Mon 03:50:29 PM 32.3253 -81.1078 242° Southwest 259 298 3,300 -1,400 Descending Jacksonville Center
Mon 03:51:29 PM 32.2842 -81.1675 231° Southwest 265 305 2,000 -650 Descending Jacksonville Center
Mon 03:52:29 PM 32.2328 -81.2225 222° Southwest 265 305 2,000  Level Jacksonville Center
Mon 03:53:29 PM 32.1772 -81.2825 222° Southwest 265 305 2,000 -450 Level Jacksonville Center
Mon 03:54:29 PM 32.1314 -81.2833 181° South 206 237 1,100 -850 Descending Jacksonville Center
Mon 03:55:29 PM 32.1264 -81.2367 97° East 102 117 300 -450 Descending Jacksonville Center
Mon 03:56:29 PM 32.1156 -81.2075 114° Southeast 102 117 200 -100 Descending Jacksonville Center
Mon 03:58:00 PM 32.1167 -81.2000 North  Level FlightAware Approximate
Mon 04:05:00 PM 32.1276 -81.2021 North  Level Estimated
Mon 04:06:00 PM 32.1276 -81.2021 North  Level Estimated
Mon 04:07:00 PM 32.1276 -81.2021 North  Level Estimated

Login

Don't have an account? Register now (free) for customized features, flight alerts, and more!